Time;durP1;ratioP1;P1;durP2;ratioP2;P2;SDS_P1;SDS_P2;PMS_P1;PMS_P2;Temp;Humidity;BMP_temperature;BMP_pressure;BME280_temperature;BME280_humidity;BME280_pressure;Samples;Min_cycle;Max_cycle;Signal;HPM_P1;HPM_P2
2023/09/06 00:01:52;;;;;;;;;;;;;;;22.98;100.00;99993.69;10543518;28;20078;-78
2023/09/06 00:06:53;;;;;;;19.45;5.45;;;;;;;21.78;100.00;99828.75;10543825;28;19960;-77
2023/09/06 00:11:54;;;;;;;14.75;5.57;;;;;;;22.33;100.00;99928.63;10524646;28;20065;-77
2023/09/06 00:16:55;;;;;;;24.45;6.20;;;;;;;22.76;100.00;99991.84;10542292;28;20040;-76
2023/09/06 00:21:58;;;;;;;21.90;6.30;;;;;;;22.46;100.00;99961.75;10541744;28;20048;-77
2023/09/06 00:27:03;;;;;;;24.13;5.68;;;;;;;22.05;100.00;99872.84;10541201;28;20181;-77
2023/09/06 00:32:04;;;;;;;25.27;5.63;;;;;;;22.25;100.00;99917.44;10541025;28;20498;-77
2023/09/06 00:37:07;;;;;;;18.50;5.65;;;;;;;22.08;100.00;99904.00;10522915;28;20127;-78
2023/09/06 00:42:08;;;;;;;13.30;5.20;;;;;;;22.32;100.00;99948.63;10540834;28;20496;-78
2023/09/06 00:47:09;;;;;;;29.05;6.47;;;;;;;21.57;100.00;99846.66;10541067;28;20039;-78
2023/09/06 00:52:10;;;;;;;17.05;5.25;;;;;;;21.63;100.00;99854.56;10540478;28;20046;-77
2023/09/06 00:57:11;;;;;;;23.40;5.50;;;;;;;21.59;100.00;99839.09;10538900;28;20036;-77
2023/09/06 01:02:12;;;;;;;19.42;5.93;;;;;;;21.76;100.00;99864.16;10540029;28;20048;-77
2023/09/06 01:07:13;;;;;;;20.75;6.38;;;;;;;22.32;100.00;99932.41;10541105;28;20056;-77
2023/09/06 01:12:14;;;;;;;22.45;6.82;;;;;;;21.81;100.00;99841.78;10539719;28;20411;-77
2023/09/06 01:17:17;;;;;;;17.20;6.25;;;;;;;22.79;100.00;100006.72;10539783;28;20042;-77
2023/09/06 01:22:41;;;;;;;12.37;6.70;;;;;;;21.83;100.00;99837.72;10539594;28;20477;-77
2023/09/06 01:27:43;;;;;;;16.70;6.97;;;;;;;22.47;100.00;99955.28;10539440;28;20046;-77
2023/09/06 01:32:44;;;;;;;19.15;6.85;;;;;;;22.86;100.00;100018.19;10539214;28;20043;-77
2023/09/06 01:37:45;;;;;;;15.50;6.95;;;;;;;22.66;100.00;99989.00;10538601;28;20043;-77
2023/09/06 01:42:47;;;;;;;15.15;7.00;;;;;;;22.94;100.00;100031.28;10538562;28;20058;-77
2023/09/06 01:47:48;;;;;;;14.18;6.72;;;;;;;22.71;100.00;99999.91;10539326;28;20040;-77
2023/09/06 01:52:48;;;;;;;14.18;6.75;;;;;;;22.93;100.00;100032.31;10538543;28;20036;-77
2023/09/06 01:57:49;;;;;;;72.18;10.02;;;;;;;22.87;100.00;100013.59;10519913;28;20032;-76
2023/09/06 02:02:50;;;;;;;20.15;7.45;;;;;;;22.33;100.00;99942.16;10539118;28;20085;-77
2023/09/06 02:07:51;;;;;;;18.15;6.95;;;;;;;22.20;100.00;99925.50;10536800;28;20442;-78
2023/09/06 02:12:52;;;;;;;21.20;7.38;;;;;;;21.84;100.00;99862.91;10510698;28;20047;-77
2023/09/06 02:17:53;;;;;;;19.92;7.18;;;;;;;22.47;100.00;99976.94;10538016;28;20047;-77
2023/09/06 02:22:55;;;;;;;19.95;8.07;;;;;;;21.69;100.00;99847.31;10538053;28;20040;-77
2023/09/06 02:27:58;;;;;;;22.73;8.40;;;;;;;22.29;100.00;99946.44;10537241;28;20407;-76
2023/09/06 02:32:58;;;;;;;26.73;8.30;;;;;;;22.43;100.00;99984.72;10536897;28;20050;-76
2023/09/06 02:38:00;;;;;;;28.42;8.68;;;;;;;22.08;100.00;99956.19;10536559;28;20040;-76
2023/09/06 02:43:02;;;;;;;18.65;8.13;;;;;;;22.22;100.00;99969.34;10537121;28;20039;-76
2023/09/06 02:48:07;;;;;;;10.35;6.38;;;;;;;22.01;100.00;99925.00;10519126;28;20036;-77
2023/09/06 02:53:20;;;;;;;14.55;6.95;;;;;;;22.38;100.00;99979.28;10537131;28;20040;-76
2023/09/06 02:58:23;;;;;;;43.17;7.90;;;;;;;22.84;100.00;100046.59;10517003;28;20574;-78
2023/09/06 03:03:27;;;;;;;27.80;8.00;;;;;;;22.20;100.00;99934.44;10536508;28;20103;-76
2023/09/06 03:08:29;;;;;;;16.15;8.18;;;;;;;22.15;100.00;99920.81;10533020;28;20059;-76
2023/09/06 03:13:30;;;;;;;26.75;8.30;;;;;;;22.17;100.00;99918.72;10534030;28;20035;-75
2023/09/06 03:18:30;;;;;;;21.52;7.65;;;;;;;21.96;100.00;99897.91;10536641;28;20036;-76
2023/09/06 03:23:32;;;;;;;43.08;9.63;;;;;;;22.39;100.00;99963.84;10544405;28;20043;-76
2023/09/06 03:28:33;;;;;;;23.42;8.68;;;;;;;22.41;100.00;99967.13;10543549;28;20036;-76
2023/09/06 03:33:35;;;;;;;40.10;8.80;;;;;;;22.26;100.00;99946.94;10525837;28;20042;-76
2023/09/06 03:38:39;;;;;;;32.08;9.05;;;;;;;22.55;100.00;99984.56;10544452;28;20551;-76
2023/09/06 03:43:39;;;;;;;11.93;6.78;;;;;;;22.24;100.00;99945.56;10543879;28;20032;-76
2023/09/06 03:48:40;;;;;;;21.10;7.68;;;;;;;21.89;100.00;99879.16;10525291;28;20148;-75
2023/09/06 03:53:42;;;;;;;40.50;11.68;;;;;;;22.37;100.00;99961.38;10542987;28;20036;-76
2023/09/06 03:58:43;;;;;;;28.25;9.65;;;;;;;22.59;100.00;100003.84;10542677;28;20040;-77
2023/09/06 04:03:46;;;;;;;28.25;10.07;;;;;;;22.51;100.00;100027.56;10542308;28;20051;-76
2023/09/06 04:08:48;;;;;;;27.70;10.67;;;;;;;22.14;100.00;99991.41;10524075;28;20495;-76
2023/09/06 04:13:51;;;;;;;30.98;11.00;;;;;;;21.87;100.00;99976.78;10541752;28;20517;-76
2023/09/06 04:18:52;;;;;;;36.38;11.80;;;;;;;21.94;100.00;99994.69;10524068;28;20036;-76
2023/09/06 04:23:52;;;;;;;24.75;10.88;;;;;;;22.14;100.00;100042.78;10524253;28;20044;-75
2023/09/06 04:28:53;;;;;;;28.10;12.02;;;;;;;21.45;100.00;99935.09;10541751;28;20036;-75
2023/09/06 04:33:54;;;;;;;33.22;16.42;;;;;;;21.37;100.00;99947.19;10521613;28;20075;-76
2023/09/06 04:38:56;;;;;;;23.30;10.07;;;;;;;21.46;100.00;99971.88;10523142;28;20036;-77
2023/09/06 04:43:57;;;;;;;21.25;9.55;;;;;;;21.05;100.00;99918.03;10523124;28;20044;-78
2023/09/06 04:48:57;;;;;;;19.75;9.38;;;;;;;21.58;100.00;99978.81;10540320;28;20475;-76
2023/09/06 04:53:59;;;;;;;25.80;10.02;;;;;;;21.85;100.00;99997.81;10522160;28;20044;-77
2023/09/06 04:59:01;;;;;;;15.82;8.15;;;;;;;21.50;100.00;99954.09;10540119;28;20519;-75
2023/09/06 05:04:03;;;;;;;13.23;8.32;;;;;;;21.94;100.00;100025.25;10539576;28;20059;-77
2023/09/06 05:09:03;;;;;;;18.67;9.02;;;;;;;21.56;100.00;99961.22;10521898;28;20075;-76
2023/09/06 05:14:04;;;;;;;16.05;11.68;;;;;;;22.44;100.00;100108.16;10521943;28;20059;-76
2023/09/06 05:19:05;;;;;;;23.05;12.27;;;;;;;21.88;100.00;99997.31;10539679;28;20218;-75
2023/09/06 05:24:06;;;;;;;26.05;14.05;;;;;;;22.58;100.00;100107.78;10539749;28;20051;-76
2023/09/06 05:29:07;;;;;;;24.15;15.73;;;;;;;21.87;100.00;99973.25;10539651;28;20086;-76
2023/09/06 05:34:07;;;;;;;29.42;15.13;;;;;;;22.10;100.00;99980.28;10539207;28;20067;-75
2023/09/06 05:39:09;;;;;;;24.48;13.27;;;;;;;22.97;100.00;100081.41;10538927;28;20469;-76
2023/09/06 05:44:10;;;;;;;24.52;12.02;;;;;;;22.40;100.00;99971.69;10537709;28;20047;-76
2023/09/06 05:49:10;;;;;;;24.25;10.85;;;;;;;22.54;100.00;99958.59;10520621;28;20044;-77
2023/09/06 05:54:11;;;;;;;22.65;9.65;;;;;;;23.00;100.00;100003.19;10538512;28;20044;-76
2023/09/06 05:59:14;;;;;;;15.82;8.10;;;;;;;23.81;100.00;100143.16;10538759;28;20130;-76
2023/09/06 06:04:14;;;;;;;16.45;8.07;;;;;;;23.40;100.00;100066.09;10538028;28;20567;-76
2023/09/06 06:09:15;;;;;;;31.73;6.95;;;;;;;23.34;100.00;100054.38;10520208;28;20097;-77
2023/09/06 06:14:16;;;;;;;13.15;5.88;;;;;;;24.07;100.00;100159.59;10538791;28;20040;-75
2023/09/06 06:19:17;;;;;;;10.00;5.65;;;;;;;23.93;100.00;100140.22;10518985;28;20039;-76
2023/09/06 06:24:18;;;;;;;12.90;5.45;;;;;;;23.90;100.00;100119.88;10537585;28;20067;-78
2023/09/06 06:29:18;;;;;;;18.58;5.28;;;;;;;23.20;100.00;100002.50;10537196;28;20044;-76
2023/09/06 06:34:19;;;;;;;10.68;5.00;;;;;;;23.43;100.00;100043.88;10518999;28;20404;-75
2023/09/06 06:39:20;;;;;;;7.30;4.65;;;;;;;22.98;100.00;99999.91;10537905;28;20445;-75
2023/09/06 06:44:21;;;;;;;10.73;4.95;;;;;;;23.72;100.00;100089.63;10518319;28;20493;-76
2023/09/06 06:49:23;;;;;;;10.50;5.25;;;;;;;24.22;100.00;100180.59;10536543;28;20044;-76
2023/09/06 06:54:24;;;;;;;9.43;5.65;;;;;;;23.30;100.00;100018.00;10522020;28;20040;-75
2023/09/06 06:59:27;;;;;;;16.30;6.25;;;;;;;23.81;100.00;100088.06;10545519;28;20098;-75
2023/09/06 07:04:27;;;;;;;8.68;4.45;;;;;;;23.48;100.00;100008.66;10545212;28;20081;-76
2023/09/06 07:09:28;;;;;;;23.15;7.03;;;;;;;24.02;100.00;100086.28;10545714;28;20044;-75
2023/09/06 07:14:29;;;;;;;15.35;6.13;;;;;;;23.62;100.00;100030.69;10544683;28;20502;-76
2023/09/06 07:19:30;;;;;;;31.73;6.00;;;;;;;23.95;100.00;100089.25;10544599;28;20057;-76
2023/09/06 07:24:31;;;;;;;7.30;5.10;;;;;;;24.00;100.00;100085.75;10525653;28;20051;-76
2023/09/06 07:29:32;;;;;;;14.55;4.80;;;;;;;23.68;100.00;100030.47;10526098;28;20045;-76
2023/09/06 07:34:32;;;;;;;11.18;4.35;;;;;;;23.46;100.00;99991.84;10544623;28;20518;-76
2023/09/06 07:39:33;;;;;;;13.63;4.60;;;;;;;24.23;100.00;100111.63;10543821;28;20035;-75
2023/09/06 07:44:35;;;;;;;13.95;4.35;;;;;;;23.47;99.64;99983.44;10543057;28;20044;-76
2023/09/06 07:49:36;;;;;;;6.90;4.28;;;;;;;23.71;98.92;99995.81;10544116;28;20465;-75
2023/09/06 07:54:37;;;;;;;10.43;4.45;;;;;;;24.17;98.03;100042.13;10543257;28;20135;-75
2023/09/06 07:59:38;;;;;;;9.88;4.70;;;;;;;24.13;97.72;100026.38;10543078;28;20437;-75
2023/09/06 08:04:39;;;;;;;28.85;4.85;;;;;;;24.62;96.49;100067.81;10542014;28;20048;-75
2023/09/06 08:09:39;;;;;;;19.02;7.85;;;;;;;24.59;95.44;100064.59;10541704;28;20036;-74
2023/09/06 08:14:41;;;;;;;19.88;4.63;;;;;;;24.35;95.02;100025.34;10524315;28;20105;-75
2023/09/06 08:19:42;;;;;;;31.98;4.18;;;;;;;24.84;94.19;100079.31;10523696;28;20040;-76
2023/09/06 08:24:43;;;;;;;11.80;4.13;;;;;;;24.35;93.01;99996.34;10523847;28;20127;-75
2023/09/06 08:29:44;;;;;;;17.67;3.55;;;;;;;24.76;91.62;100007.28;10541155;28;20043;-75
2023/09/06 08:34:44;;;;;;;17.27;3.85;;;;;;;25.33;89.55;100081.53;10541631;28;20032;-75
2023/09/06 08:39:45;;;;;;;18.63;3.83;;;;;;;25.45;88.69;100094.84;10542166;28;20426;-75
2023/09/06 08:44:49;;;;;;;13.18;3.47;;;;;;;25.50;87.43;100101.13;10540770;28;20134;-76
2023/09/06 08:49:53;;;;;;;21.67;4.45;;;;;;;25.53;87.30;100069.03;10541019;28;20040;-75
2023/09/06 08:54:54;;;;;;;16.98;6.22;;;;;;;25.69;85.34;100084.22;10523114;28;20028;-75
2023/09/06 08:59:56;;;;;;;19.65;4.07;;;;;;;26.47;84.53;100173.59;10522030;28;20062;-75
2023/09/06 09:04:57;;;;;;;28.88;5.38;;;;;;;25.74;82.62;100016.22;10540207;28;20146;-76
2023/09/06 09:10:09;;;;;;;22.50;4.20;;;;;;;26.12;79.76;100017.47;10521974;28;20161;-75
2023/09/06 09:15:10;;;;;;;26.67;5.03;;;;;;;27.30;77.57;100047.50;10541275;28;20040;-75
2023/09/06 09:20:14;;;;;;;27.17;11.90;;;;;;;27.97;74.55;100145.97;10538987;28;20488;-75
2023/09/06 09:25:20;;;;;;;11.88;3.97;;;;;;;27.88;74.79;100138.69;10540282;28;20048;-75
2023/09/06 09:30:21;;;;;;;15.23;3.97;;;;;;;28.23;73.17;100130.13;10539040;28;20040;-75
2023/09/06 09:35:25;;;;;;;11.93;3.55;;;;;;;28.64;71.08;100140.56;10539305;28;20035;-75
2023/09/06 09:40:32;;;;;;;19.02;4.13;;;;;;;28.82;70.71;100160.03;10538850;28;20411;-75
2023/09/06 09:45:45;;;;;;;26.75;6.10;;;;;;;29.50;67.18;100113.06;10538317;28;20035;-75
2023/09/06 09:50:46;;;;;;;;;;;;;;;30.43;63.46;100183.47;10521096;28;20514;-75
2023/09/06 09:55:48;;;;;;;20.85;5.65;;;;;;;29.46;65.12;100185.91;10537129;28;19938;-76
2023/09/06 10:00:50;;;;;;;27.77;6.07;;;;;;;28.81;64.77;100175.63;10537003;28;20040;-75
2023/09/06 10:05:52;;;;;;;25.75;6.88;;;;;;;28.44;64.32;100168.16;10537868;28;20062;-75
2023/09/06 10:10:52;;;;;;;19.02;5.35;;;;;;;28.34;63.63;100155.41;10538254;28;20134;-75
2023/09/06 10:15:56;;;;;;;28.23;9.20;;;;;;;28.28;62.98;100131.19;10538055;28;20551;-75
2023/09/06 10:20:57;;;;;;;37.03;6.20;;;;;;;28.40;62.25;100175.28;10535344;28;20043;-75
2023/09/06 10:26:00;;;;;;;24.10;4.85;;;;;;;28.19;61.80;100178.25;10538414;28;20429;-75
2023/09/06 10:31:08;;;;;;;18.95;5.03;;;;;;;27.85;61.89;100133.81;10538432;28;20062;-73
2023/09/06 10:36:13;;;;;;;25.25;4.88;;;;;;;28.65;60.06;100163.25;10537462;28;20166;-75
2023/09/06 10:41:15;;;;;;;48.42;5.15;;;;;;;29.32;57.62;100190.53;10536897;28;20040;-73
2023/09/06 10:46:19;;;;;;;16.65;4.13;;;;;;;29.49;55.58;100185.31;10537642;28;20044;-76
2023/09/06 10:51:19;;;;;;;21.63;5.05;;;;;;;29.43;57.17;100129.03;10535777;28;20128;-75
2023/09/06 10:56:29;;;;;;;19.13;4.88;;;;;;;29.63;54.14;100135.34;10537079;28;20093;-75
2023/09/06 11:01:31;;;;;;;20.85;4.60;;;;;;;29.57;54.90;100178.38;10537217;28;20055;-75
2023/09/06 11:06:51;;;;;;;19.38;4.53;;;;;;;29.41;54.14;100155.91;10537423;28;20511;-75
2023/09/06 11:11:52;;;;;;;31.75;5.07;;;;;;;29.39;55.95;100158.13;10536994;28;20040;-75
2023/09/06 11:16:53;;;;;;;24.23;4.22;;;;;;;29.80;55.38;100150.06;10537443;28;20047;-76
2023/09/06 11:22:07;;;;;;;35.75;4.72;;;;;;;29.83;54.00;100121.28;10535741;28;20054;-76
2023/09/06 11:27:24;;;;;;;19.70;4.45;;;;;;;29.92;54.14;100152.34;10535292;28;20549;-76
2023/09/06 11:32:29;;;;;;;26.45;5.10;;;;;;;29.56;55.19;100133.75;10536109;28;20040;-76
2023/09/06 11:37:30;;;;;;;16.65;4.18;;;;;;;29.57;55.50;100097.06;10536436;28;20036;-76
2023/09/06 11:42:33;;;;;;;18.42;4.32;;;;;;;30.27;54.19;100141.00;10540370;28;20391;-76
2023/09/06 11:47:34;;;;;;;30.35;4.82;;;;;;;29.67;54.80;100073.38;10544070;28;20040;-76
2023/09/06 11:52:35;;;;;;;15.70;4.10;;;;;;;29.69;55.06;100134.13;10543696;28;20114;-77
2023/09/06 11:57:37;;;;;;;18.33;4.57;;;;;;;29.35;55.81;100136.03;10543543;28;20127;-75
2023/09/06 12:02:38;;;;;;;25.70;4.90;;;;;;;29.24;54.97;100090.78;10524621;28;20040;-75
2023/09/06 12:07:40;;;;;;;27.00;4.75;;;;;;;29.41;55.08;100092.97;10542621;28;20067;-75
2023/09/06 12:12:42;;;;;;;29.23;4.43;;;;;;;29.88;54.09;100134.88;10543091;28;20082;-75
2023/09/06 12:17:47;;;;;;;12.27;3.90;;;;;;;29.98;54.18;100133.88;10540818;28;20036;-76
2023/09/06 12:22:48;;;;;;;24.70;4.40;;;;;;;30.05;54.33;100117.84;10525293;28;20617;-77
2023/09/06 12:27:48;;;;;;;20.70;4.90;;;;;;;29.81;53.48;100101.59;10520062;28;20111;-76
2023/09/06 12:32:49;;;;;;;17.27;4.85;;;;;;;29.66;53.76;100080.78;10518457;28;20036;-76
2023/09/06 12:37:50;;;;;;;16.42;4.13;;;;;;;29.83;53.40;100104.84;10516768;28;20572;-76
2023/09/06 12:42:51;;;;;;;26.35;5.05;;;;;;;29.44;53.45;100056.81;10520081;28;20069;-77
2023/09/06 12:47:52;;;;;;;40.92;5.60;;;;;;;29.61;54.28;100124.63;10518174;28;20040;-76
2023/09/06 12:52:54;;;;;;;16.25;4.10;;;;;;;29.66;54.26;100126.53;10519310;28;20089;-77
2023/09/06 12:57:59;;;;;;;18.13;4.63;;;;;;;29.67;53.70;100122.66;10518310;28;20054;-76
2023/09/06 13:03:01;;;;;;;23.40;4.72;;;;;;;29.50;53.64;100080.22;10516908;28;20115;-76
2023/09/06 13:08:02;;;;;;;19.60;4.93;;;;;;;29.61;53.73;100100.00;10520678;28;20571;-76
2023/09/06 13:13:03;;;;;;;27.73;4.50;;;;;;;29.28;54.04;100091.81;10503911;28;20043;-75
2023/09/06 13:18:04;;;;;;;29.15;5.22;;;;;;;28.63;53.99;100024.19;10539281;28;20044;-76
2023/09/06 13:23:05;;;;;;;31.05;5.13;;;;;;;29.09;53.66;100099.25;10536560;28;20051;-76
2023/09/06 13:28:05;;;;;;;16.55;4.20;;;;;;;29.17;53.67;100119.63;10515486;28;20048;-75
2023/09/06 13:33:06;;;;;;;21.13;4.47;;;;;;;28.94;53.87;100124.88;10520951;28;20082;-76
2023/09/06 13:38:07;;;;;;;19.85;4.38;;;;;;;28.55;54.01;100101.34;10520951;28;20068;-74
2023/09/06 13:43:07;;;;;;;25.05;4.50;;;;;;;28.30;54.50;100105.19;10518034;28;20040;-75
2023/09/06 13:48:09;;;;;;;25.83;5.07;;;;;;;27.42;55.40;100003.50;10517050;28;20565;-75
2023/09/06 13:53:10;;;;;;;16.08;4.80;;;;;;;27.77;55.90;100077.91;10515767;28;20024;-76
2023/09/06 13:58:13;;;;;;;22.65;5.57;;;;;;;27.71;56.38;100060.78;10524383;28;20122;-75
2023/09/06 14:03:14;;;;;;;24.67;5.70;;;;;;;27.68;56.10;100058.63;10496551;28;20036;-76
2023/09/06 14:08:15;;;;;;;26.17;4.82;;;;;;;27.51;56.08;100067.22;10519761;28;20052;-76
2023/09/06 14:13:15;;;;;;;17.20;4.22;;;;;;;27.60;56.58;100127.47;10517607;28;20040;-75
2023/09/06 14:18:18;;;;;;;16.17;3.97;;;;;;;27.44;57.32;100153.25;10516697;28;20047;-76
2023/09/06 14:23:19;;;;;;;19.08;4.20;;;;;;;27.21;57.38;100158.31;10498587;28;20045;-75
2023/09/06 14:28:20;;;;;;;35.72;5.10;;;;;;;26.68;57.65;100121.81;10495601;28;20044;-75
2023/09/06 14:33:21;;;;;;;34.78;5.05;;;;;;;26.81;57.23;100171.06;10478220;28;20068;-75
2023/09/06 14:38:22;;;;;;;20.58;3.83;;;;;;;26.72;57.75;100182.84;10495719;28;20607;-75
2023/09/06 14:43:24;;;;;;;32.30;4.95;;;;;;;26.23;57.96;100143.47;10495606;28;20036;-76
2023/09/06 14:48:25;;;;;;;37.38;5.00;;;;;;;26.42;58.15;100185.34;10535038;28;20067;-75
2023/09/06 14:53:26;;;;;;;32.55;4.18;;;;;;;26.41;58.46;100201.97;10517284;28;20490;-75
2023/09/06 14:58:27;;;;;;;30.50;4.65;;;;;;;26.24;58.72;100198.75;10537278;28;20123;-75
2023/09/06 15:03:28;;;;;;;20.40;3.63;;;;;;;26.16;58.81;100208.28;10535131;28;20549;-75
2023/09/06 15:08:30;;;;;;;18.50;4.13;;;;;;;25.97;59.05;100194.44;10532366;28;20075;-76
2023/09/06 15:13:31;;;;;;;20.52;6.05;;;;;;;25.67;59.07;100154.44;10535032;28;20074;-75
2023/09/06 15:18:34;;;;;;;27.13;6.57;;;;;;;25.98;59.32;100217.03;10543355;28;20040;-75
2023/09/06 15:23:35;;;;;;;19.00;5.20;;;;;;;25.65;59.26;100176.44;10544219;28;20048;-75
2023/09/06 15:28:36;;;;;;;23.35;5.10;;;;;;;25.81;59.77;100220.78;10543816;28;20097;-75
2023/09/06 15:33:36;;;;;;;25.50;5.50;;;;;;;25.63;59.62;100200.38;10543975;28;20039;-75
2023/09/06 15:38:40;;;;;;;17.17;4.05;;;;;;;25.37;59.97;100179.69;10537054;28;20032;-76
2023/09/06 15:43:41;;;;;;;24.35;4.97;;;;;;;25.49;60.47;100224.59;10500205;28;20113;-75
2023/09/06 15:48:42;;;;;;;20.92;4.03;;;;;;;25.50;60.64;100244.44;10513781;28;20066;-75
2023/09/06 15:53:43;;;;;;;14.10;3.70;;;;;;;25.40;60.29;100252.59;10509507;28;20483;-75
2023/09/06 15:58:43;;;;;;;13.02;4.40;;;;;;;25.09;60.17;100225.28;10532527;28;20044;-76
2023/09/06 16:03:45;;;;;;;14.90;4.30;;;;;;;24.93;59.55;100227.13;10532233;28;20059;-75
2023/09/06 16:08:45;;;;;;;15.00;4.43;;;;;;;24.82;58.54;100222.72;10524229;28;20036;-76
2023/09/06 16:13:46;;;;;;;16.95;4.15;;;;;;;24.93;57.38;100262.47;10523576;28;20044;-75
2023/09/06 16:18:47;;;;;;;13.50;3.58;;;;;;;24.80;57.06;100266.47;10522483;28;20513;-76
2023/09/06 16:23:48;;;;;;;9.40;3.25;;;;;;;24.68;55.64;100254.16;10520602;28;20122;-75
2023/09/06 16:28:49;;;;;;;11.23;2.85;;;;;;;24.51;54.56;100236.16;10519988;28;20138;-76
2023/09/06 16:33:50;;;;;;;12.10;3.25;;;;;;;24.86;53.65;100299.94;10519414;28;20032;-75
2023/09/06 16:38:51;;;;;;;17.88;5.00;;;;;;;24.69;53.06;100277.56;10526121;28;20514;-74
2023/09/06 16:43:52;;;;;;;19.08;6.32;;;;;;;24.49;53.14;100267.38;10523819;28;20047;-75
2023/09/06 16:48:53;;;;;;;12.35;4.00;;;;;;;24.70;53.31;100314.50;10523412;28;20039;-75
2023/09/06 16:53:53;;;;;;;11.82;4.90;;;;;;;24.38;53.94;100267.28;10519217;28;20044;-75
2023/09/06 16:58:54;;;;;;;13.73;3.38;;;;;;;24.48;53.87;100309.19;10516061;28;20051;-76
2023/09/06 17:03:55;;;;;;;12.48;2.85;;;;;;;24.36;54.45;100312.06;10515084;28;20063;-75
2023/09/06 17:08:57;;;;;;;10.82;3.05;;;;;;;24.44;54.61;100354.22;10501526;28;20575;-75
2023/09/06 17:13:58;;;;;;;10.00;4.70;;;;;;;24.30;54.68;100346.50;10515920;28;20089;-75
2023/09/06 17:18:58;;;;;;;10.05;3.70;;;;;;;24.22;55.49;100354.28;10516986;28;20441;-75
2023/09/06 17:24:01;;;;;;;31.80;17.85;;;;;;;24.22;55.79;100373.28;10521335;28;20051;-76
2023/09/06 17:29:05;;;;;;;25.75;8.55;;;;;;;24.10;55.67;100365.31;10516406;28;21456;-74
2023/09/06 17:34:06;;;;;;;19.33;5.85;;;;;;;23.71;56.70;100321.25;10520706;28;20424;-74
2023/09/06 17:39:11;;;;;;;15.65;4.35;;;;;;;23.82;56.88;100350.13;10516822;28;20045;-74
2023/09/06 17:44:12;;;;;;;14.23;3.50;;;;;;;23.87;57.21;100369.16;10515960;28;20115;-75
2023/09/06 17:49:14;;;;;;;28.15;14.57;;;;;;;23.51;56.59;100317.19;10519844;28;20048;-75
2023/09/06 17:54:20;;;;;;;42.58;26.08;;;;;;;23.63;55.83;100355.03;10517743;28;20069;-75
2023/09/06 17:59:23;;;;;;;38.70;18.75;;;;;;;23.65;54.77;100377.28;10517585;28;20467;-74
2023/09/06 18:04:24;;;;;;;28.65;13.15;;;;;;;23.30;54.18;100337.81;10514428;28;20117;-72
2023/09/06 18:09:26;;;;;;;15.38;8.07;;;;;;;23.12;53.68;100320.00;10534396;28;20040;-74
2023/09/06 18:14:26;;;;;;;11.98;4.53;;;;;;;23.48;53.25;100393.63;10520402;28;20067;-75
2023/09/06 18:19:28;;;;;;;16.15;4.05;;;;;;;23.04;52.91;100336.69;10536940;28;20545;-74
2023/09/06 18:24:29;;;;;;;15.43;3.97;;;;;;;23.08;52.26;100356.78;10536549;28;20139;-75
2023/09/06 18:29:31;;;;;;;16.33;6.07;;;;;;;23.35;52.41;100396.72;10537310;28;20040;-75
2023/09/06 18:34:32;;;;;;;18.67;7.35;;;;;;;23.01;52.59;100365.13;10537576;28;20046;-75
2023/09/06 18:39:32;;;;;;;18.05;5.57;;;;;;;22.86;52.36;100351.31;10538231;28;20135;-75
2023/09/06 18:44:34;;;;;;;15.20;5.47;;;;;;;22.94;52.39;100380.69;10518655;28;20040;-75
2023/09/06 18:49:37;;;;;;;38.88;7.10;;;;;;;23.10;52.80;100414.28;10538059;28;20048;-75
2023/09/06 18:54:38;;;;;;;13.63;4.65;;;;;;;22.97;52.79;100409.19;10565620;28;20088;-75
2023/09/06 18:59:39;;;;;;;13.98;4.22;;;;;;;22.85;52.87;100414.66;10588239;28;20138;-75
2023/09/06 19:04:42;;;;;;;13.13;6.63;;;;;;;22.78;52.88;100428.38;10587732;28;20414;-75
2023/09/06 19:09:45;;;;;;;13.20;4.18;;;;;;;22.82;52.77;100442.25;10587684;28;20032;-75
2023/09/06 19:14:46;;;;;;;12.43;4.00;;;;;;;22.60;53.74;100450.28;10586975;28;20047;-75
2023/09/06 19:19:46;;;;;;;29.23;3.42;;;;;;;22.16;53.82;100393.19;10587444;28;20039;-75
2023/09/06 19:24:47;;;;;;;19.85;4.55;;;;;;;22.35;54.63;100456.09;10587145;28;20146;-75
2023/09/06 19:29:48;;;;;;;19.88;4.68;;;;;;;22.11;54.92;100431.00;10586272;28;20067;-75
2023/09/06 19:34:49;;;;;;;14.88;5.07;;;;;;;21.86;55.66;100407.78;10586645;28;20106;-75
2023/09/06 19:39:50;;;;;;;19.27;3.53;;;;;;;21.86;55.94;100434.81;10586411;28;20081;-76
2023/09/06 19:44:52;;;;;;;17.10;2.95;;;;;;;21.73;57.57;100442.41;10586375;28;20097;-76
2023/09/06 19:49:54;;;;;;;14.35;2.92;;;;;;;21.15;58.69;100382.81;10585468;28;20105;-75
2023/09/06 19:54:59;;;;;;;23.77;3.42;;;;;;;21.24;60.82;100448.09;10585314;28;20071;-76
2023/09/06 20:00:03;;;;;;;14.52;2.75;;;;;;;20.73;61.79;100419.88;10585256;28;20036;-76
2023/09/06 20:05:06;;;;;;;13.82;2.20;;;;;;;20.49;63.03;100435.19;10584267;28;20059;-76
2023/09/06 20:10:08;;;;;;;14.35;2.92;;;;;;;20.34;63.44;100424.00;10585002;28;20043;-76
2023/09/06 20:15:09;;;;;;;21.00;2.97;;;;;;;20.34;63.58;100446.44;10584697;28;20035;-76
2023/09/06 20:20:10;;;;;;;19.20;3.10;;;;;;;19.64;65.01;100354.44;10537694;28;20051;-76
2023/09/06 20:25:11;;;;;;;12.90;2.95;;;;;;;19.97;65.36;100422.22;10541791;28;20548;-76
2023/09/06 20:30:11;;;;;;;7.88;2.83;;;;;;;20.04;65.71;100443.72;10542346;28;20051;-77
2023/09/06 20:35:12;;;;;;;8.35;2.80;;;;;;;19.71;66.38;100409.09;10542440;28;20127;-76
2023/09/06 20:40:14;;;;;;;8.73;2.38;;;;;;;19.86;66.77;100455.34;10541848;28;20055;-76
2023/09/06 20:45:15;;;;;;;12.13;2.78;;;;;;;19.87;67.77;100465.09;10541112;28;20569;-76
2023/09/06 20:50:18;;;;;;;10.60;2.67;;;;;;;19.77;68.26;100464.78;10541641;28;20114;-76
2023/09/06 20:55:19;;;;;;;13.90;2.90;;;;;;;19.58;69.13;100474.72;10541334;28;20081;-75
2023/09/06 21:00:19;;;;;;;8.90;2.45;;;;;;;18.99;70.09;100424.97;10540310;28;20830;-76
2023/09/06 21:05:20;;;;;;;9.15;2.75;;;;;;;19.15;70.90;100465.63;10539818;28;20068;-76
2023/09/06 21:10:21;;;;;;;9.55;2.55;;;;;;;19.13;72.08;100477.66;10540116;28;20457;-76
2023/09/06 21:15:22;;;;;;;25.38;3.90;;;;;;;19.10;72.23;100468.16;10540974;28;20411;-76
2023/09/06 21:20:23;;;;;;;20.40;3.50;;;;;;;18.96;72.54;100474.69;10521549;28;20088;-76
2023/09/06 21:25:24;;;;;;;20.48;3.45;;;;;;;18.77;73.00;100446.91;10540030;28;20047;-75
2023/09/06 21:30:25;;;;;;;21.02;3.35;;;;;;;18.76;72.92;100453.34;10539387;28;20036;-76
2023/09/06 21:35:28;;;;;;;26.60;3.80;;;;;;;18.55;73.46;100451.00;10539889;28;20040;-76
2023/09/06 21:40:29;;;;;;;25.70;3.58;;;;;;;17.98;73.79;100381.03;10539022;28;20043;-76
2023/09/06 21:45:30;;;;;;;25.55;3.63;;;;;;;18.33;74.20;100463.94;10539310;28;20554;-76
2023/09/06 21:50:40;;;;;;;14.10;2.90;;;;;;;18.11;75.70;100442.75;10539172;28;20040;-76
2023/09/06 21:55:41;;;;;;;15.77;3.13;;;;;;;18.06;75.15;100457.88;10539069;28;20042;-76
2023/09/06 22:00:42;;;;;;;29.85;3.58;;;;;;;17.66;75.55;100407.78;10538821;28;20040;-76
2023/09/06 22:05:43;;;;;;;18.45;3.78;;;;;;;17.77;75.99;100436.72;10537753;28;20505;-75
2023/09/06 22:10:44;;;;;;;29.20;4.10;;;;;;;17.66;76.48;100434.66;10539003;28;20036;-76
2023/09/06 22:15:44;;;;;;;15.85;4.40;;;;;;;17.74;76.89;100463.16;10537911;28;20123;-76
2023/09/06 22:20:45;;;;;;;19.15;3.42;;;;;;;17.64;76.70;100439.41;10538953;28;20507;-76
2023/09/06 22:25:57;;;;;;;21.08;3.78;;;;;;;17.85;78.95;100461.69;10519742;28;20040;-76
2023/09/06 22:30:58;;;;;;;12.32;2.90;;;;;;;17.30;76.87;100387.66;10538973;28;20047;-76
2023/09/06 22:36:00;;;;;;;13.43;3.20;;;;;;;17.37;76.99;100400.25;10537605;28;20043;-76
2023/09/06 22:41:01;;;;;;;10.20;2.65;;;;;;;17.49;76.96;100428.91;10537645;28;20043;-76
2023/09/06 22:46:02;;;;;;;9.80;2.88;;;;;;;17.48;76.63;100431.84;10537178;28;20039;-76
2023/09/06 22:51:03;;;;;;;15.52;2.97;;;;;;;17.33;77.04;100432.06;10537945;28;20044;-76